Toledo Express Airport
KTOL : now visible

Airfield :











YOU CAN JOIN US ON...

 
LOGIN :

Register | Disclaimer

   EN    FR    IT 

 









Legend :    VFR   Marginal VFR   IFR   Intensive IFR   Very Intensive IFR
Visi :
Ceiling :
>= 8 km
>= 3000ft
5 to 8 km
1000 to 3000 ft
1500m to 5 km
500 to 1000 ft
800 to 1500m
200 to 500 ft
< 800m
< 200 ft
Symbols :   Thunderstorms  Fog  Heavy snow  Heavy precipitations  Wind > 20 kt







- Airport Elevation : 683 ft
- IATA code : TOL


KTOL - Toledo Express

CURRENT METAR :
  • 261452Z 26003KT 10SM FEW047 SCT110 22/19 A3001 RMK AO2 SLP157 60000 T02170189 50009 $

EXPIRED METARs :
  • 261352Z 27004KT 10SM FEW100 FEW120 21/18 A3003 RMK AO2 SLP164 T02110183 $
  • 261252Z 24010KT 10SM FEW100 21/18 A3002 RMK AO2 RAE01 SLP160 P0000 T02060183 $
  • 261152Z 19011KT 7SM -RA SCT090 OVC110 19/18 A2998 RMK AO2 TSE04 SLP148 P0021 60021 70040 T01940178 10211 20194 50010 $

TAF KTOL
Valid from the 26 at 12:00 until the 27 at 12:00 UTC


261139Z 2612/2712 27005KT 5SM -SHRA OVC050
FM261300 26004KT P6SM VCSH OVC040
FM262100 VRB03KT P6SM VCTS OVC050CB
FM270000 07005KT P6SM BKN070
KZOB FIR / North America



MET'MAP, your aeronautical weather chart ! - Copyright ORBIFLY December 2007 - Disclaimer

ORBIFLY MET'MAP TEAM :

Programming & Development : Alexandra Zaïnal
Concept & Development : Baudouin d'Aumeries
Co-Development & Prog : Marc-Olivier Méhu
Technical & hardware support : Manuel Goepfert

Contact : metmap@orbifly.com




SOURCES & CREDITS :

   NOAA       Earth
Advisory